Terminal Aerodrome Forecast
Issued by NWS Corpus Christi, TX

Home | Current Version | Previous Version | Text Only | Print | Product List | Glossary On
Versions: 1 2 3 4 5 6 7 8 9 10 11 12 13
000
FTUS44 KCRP 161418 AAB
TAFCRP
TAF AMD
KCRP 161418Z 1614/1712 17017G24KT P6SM SCT025 BKN250
      TEMPO 1614/1617 BKN025
     FM161900 15020G28KT P6SM FEW040 SCT250
     FM170300 15015G21KT P6SM FEW250
     FM170900 17011KT P6SM SCT250=

USA.gov is the U.S. government's official web portal to all federal, state and local government web resources and services.